createdAt,value
2022-08-23T00:00:32.871Z,20.79
2022-08-23T00:01:32.912Z,20.78
2022-08-23T00:02:33.043Z,20.76
2022-08-23T00:03:32.796Z,20.76
2022-08-23T00:04:34.963Z,20.73
2022-08-23T00:05:32.772Z,20.69
2022-08-23T00:06:32.805Z,20.69
2022-08-23T00:07:37.641Z,20.68
2022-08-23T00:08:33.745Z,20.66
2022-08-23T00:09:32.782Z,20.64
2022-08-23T00:10:32.775Z,20.63
2022-08-23T00:11:32.675Z,20.60
2022-08-23T00:12:32.711Z,20.58
2022-08-23T00:13:47.787Z,20.57
2022-08-23T00:14:33.688Z,20.56
2022-08-23T00:15:32.748Z,20.56
2022-08-23T00:16:32.685Z,20.54
2022-08-23T00:17:34.113Z,20.51
2022-08-23T00:18:32.637Z,20.48
2022-08-23T00:19:32.681Z,20.50
2022-08-23T00:20:32.602Z,20.46
2022-08-23T00:21:32.633Z,20.46
2022-08-23T00:22:32.583Z,20.44
2022-08-23T00:23:32.531Z,20.42
2022-08-23T00:24:32.564Z,20.41
2022-08-23T00:25:33.548Z,20.41
2022-08-23T00:26:32.614Z,20.38
2022-08-23T00:27:32.494Z,20.35
2022-08-23T00:28:32.502Z,20.35
2022-08-23T00:29:32.444Z,20.35
2022-08-23T00:30:32.525Z,20.31
2022-08-23T00:31:32.456Z,20.31
2022-08-23T00:32:32.470Z,20.27
2022-08-23T00:33:32.453Z,20.30
2022-08-23T00:34:32.481Z,20.30
2022-08-23T00:35:32.399Z,20.30
2022-08-23T00:36:32.388Z,20.27
2022-08-23T00:37:32.403Z,20.30
2022-08-23T00:38:35.117Z,20.25
2022-08-23T00:39:32.325Z,20.23
2022-08-23T00:40:32.354Z,20.20
2022-08-23T00:41:32.365Z,20.20
2022-08-23T00:42:32.328Z,20.20
2022-08-23T00:43:32.272Z,20.19
2022-08-23T00:44:32.303Z,20.19
2022-08-23T00:45:32.252Z,20.22
2022-08-23T00:46:32.315Z,20.20
2022-08-23T00:47:32.224Z,20.20
2022-08-23T00:48:32.313Z,20.22
2022-08-23T00:49:32.207Z,20.20
2022-08-23T00:50:32.177Z,20.23
2022-08-23T00:51:32.237Z,20.23
2022-08-23T00:52:33.195Z,20.23
2022-08-23T00:53:32.178Z,20.22
2022-08-23T00:54:32.221Z,20.22
2022-08-23T00:55:32.122Z,20.20
2022-08-23T00:56:32.115Z,20.19
2022-08-23T00:57:32.109Z,20.22
2022-08-23T00:58:32.081Z,20.22
2022-08-23T00:59:32.115Z,20.20
2022-08-23T01:00:32.127Z,20.19
2022-08-23T01:01:32.137Z,20.17
2022-08-23T01:02:32.095Z,20.17
2022-08-23T01:03:38.683Z,20.16
2022-08-23T01:04:33.047Z,20.15
2022-08-23T01:05:32.019Z,20.15
2022-08-23T01:06:32.038Z,20.15
2022-08-23T01:07:32.004Z,20.12
2022-08-23T01:08:32.006Z,20.12
2022-08-23T01:09:31.936Z,20.12
2022-08-23T01:10:31.961Z,20.08
2022-08-23T01:11:31.916Z,20.10
2022-08-23T01:12:32.535Z,20.08
2022-08-23T01:13:31.931Z,20.05
2022-08-23T01:14:32.870Z,20.07
2022-08-23T01:15:31.869Z,20.05
2022-08-23T01:16:31.892Z,20.05
2022-08-23T01:17:31.895Z,20.04
2022-08-23T01:18:31.816Z,20.02
2022-08-23T01:19:32.007Z,20.01
2022-08-23T01:20:31.862Z,20.02
2022-08-23T01:21:31.789Z,20.01
2022-08-23T01:22:31.775Z,20.00
2022-08-23T01:23:31.757Z,19.97
2022-08-23T01:25:05.708Z,19.95
2022-08-23T01:25:32.742Z,19.94
2022-08-23T01:26:31.737Z,19.92
2022-08-23T01:27:32.219Z,19.90
2022-08-23T01:28:31.676Z,19.90
2022-08-23T01:29:31.670Z,19.89
2022-08-23T01:30:31.724Z,19.90
2022-08-23T01:31:31.686Z,19.89
2022-08-23T01:32:31.639Z,19.87
2022-08-23T01:33:31.658Z,19.86
2022-08-23T01:34:32.393Z,19.85
2022-08-23T01:35:31.620Z,19.86
2022-08-23T01:36:31.677Z,19.86
2022-08-23T01:37:31.606Z,19.85
2022-08-23T01:38:32.893Z,19.82
2022-08-23T01:39:31.560Z,19.82
2022-08-23T01:40:31.548Z,19.80
2022-08-23T01:41:31.586Z,19.78
2022-08-23T01:42:31.545Z,19.79
2022-08-23T01:43:31.494Z,19.78
2022-08-23T01:44:31.500Z,19.79
2022-08-23T01:45:31.472Z,19.78
2022-08-23T01:46:31.567Z,19.79
2022-08-23T01:47:31.441Z,19.75
2022-08-23T01:48:31.443Z,19.75
2022-08-23T01:49:31.426Z,19.72
2022-08-23T01:50:31.494Z,19.70
2022-08-23T01:51:31.548Z,19.70
2022-08-23T01:52:31.380Z,19.70
2022-08-23T01:53:31.376Z,19.67
2022-08-23T01:54:31.372Z,19.67
2022-08-23T01:55:31.354Z,19.67
2022-08-23T01:56:38.973Z,19.67
2022-08-23T01:57:32.578Z,19.65
2022-08-23T01:58:31.348Z,19.65
2022-08-23T01:59:31.367Z,19.64
2022-08-23T02:00:31.256Z,19.64
2022-08-23T02:01:31.339Z,19.60
2022-08-23T02:02:31.265Z,19.60
2022-08-23T02:03:31.246Z,19.60
2022-08-23T02:04:31.238Z,19.58
2022-08-23T02:05:31.270Z,19.57
2022-08-23T02:06:31.286Z,19.57
2022-08-23T02:07:31.200Z,19.55
2022-08-23T02:08:31.165Z,19.53
2022-08-23T02:09:31.189Z,19.52
2022-08-23T02:10:31.187Z,19.50
2022-08-23T02:11:31.120Z,19.49
2022-08-23T02:12:31.148Z,19.49
2022-08-23T02:13:31.102Z,19.47
2022-08-23T02:14:31.117Z,19.46
2022-08-23T02:15:31.067Z,19.45
2022-08-23T02:16:31.057Z,19.43
2022-08-23T02:17:31.079Z,19.43
2022-08-23T02:18:31.033Z,19.42
2022-08-23T02:19:31.118Z,19.39
2022-08-23T02:20:31.019Z,19.39
2022-08-23T02:21:31.026Z,19.35
2022-08-23T02:22:30.991Z,19.34
2022-08-23T02:23:30.979Z,19.31
2022-08-23T02:24:30.990Z,19.30
2022-08-23T02:25:31.011Z,19.30
2022-08-23T02:26:31.349Z,19.28
2022-08-23T02:27:30.960Z,19.25
2022-08-23T02:28:30.953Z,19.27
2022-08-23T02:29:30.973Z,19.24
2022-08-23T02:30:30.910Z,19.23
2022-08-23T02:31:30.929Z,19.23
2022-08-23T02:32:30.878Z,19.20
2022-08-23T02:33:31.172Z,19.17
2022-08-23T02:35:40.951Z,19.17
2022-08-23T02:36:40.553Z,19.13
2022-08-23T02:37:40.553Z,19.12
2022-08-23T02:38:40.486Z,19.10
2022-08-23T02:39:40.483Z,19.09
2022-08-23T02:40:40.647Z,19.07
2022-08-23T02:41:40.370Z,19.06
2022-08-23T02:42:40.331Z,19.05
2022-08-23T02:43:41.124Z,19.01
2022-08-23T02:44:40.361Z,19.01
2022-08-23T02:45:40.378Z,18.97
2022-08-23T02:46:40.338Z,18.97
2022-08-23T02:47:40.344Z,18.96
2022-08-23T02:48:40.257Z,18.94
2022-08-23T02:49:40.309Z,18.93
2022-08-23T02:50:40.221Z,18.91
2022-08-23T02:51:40.255Z,18.91
2022-08-23T02:52:40.219Z,18.91
2022-08-23T02:53:40.226Z,18.90
2022-08-23T02:54:40.220Z,18.89
2022-08-23T02:55:40.193Z,18.87
2022-08-23T02:56:40.142Z,18.87
2022-08-23T02:57:40.233Z,18.87
2022-08-23T02:58:40.119Z,18.86
2022-08-23T02:59:41.138Z,18.83
2022-08-23T03:00:40.120Z,18.82
2022-08-23T03:01:40.097Z,18.78
2022-08-23T03:02:40.185Z,18.78
2022-08-23T03:03:40.050Z,18.76
2022-08-23T03:04:40.040Z,18.75
2022-08-23T03:05:40.048Z,18.75
2022-08-23T03:06:40.022Z,18.72
2022-08-23T03:07:40.057Z,18.72
2022-08-23T03:08:40.013Z,18.72
2022-08-23T03:09:39.979Z,18.69
2022-08-23T03:10:39.978Z,18.69
2022-08-23T03:11:39.960Z,18.69
2022-08-23T03:12:39.961Z,18.68
2022-08-23T03:13:40.026Z,18.66
2022-08-23T03:14:39.900Z,18.68
2022-08-23T03:15:39.919Z,18.68
2022-08-23T03:16:39.930Z,18.66
2022-08-23T03:17:39.918Z,18.65
2022-08-23T03:18:39.880Z,18.65
2022-08-23T03:19:39.849Z,18.64
2022-08-23T03:20:39.840Z,18.64
2022-08-23T03:21:39.824Z,18.64
2022-08-23T03:22:39.811Z,18.64
2022-08-23T03:23:40.809Z,18.60
2022-08-23T03:24:39.779Z,18.64
2022-08-23T03:25:39.774Z,18.62
2022-08-23T03:26:39.737Z,18.62
2022-08-23T03:27:45.007Z,18.59
2022-08-23T03:28:40.783Z,18.60
2022-08-23T03:29:39.710Z,18.57
2022-08-23T03:30:39.693Z,18.56
2022-08-23T03:31:39.592Z,18.54
2022-08-23T03:32:39.580Z,18.54
2022-08-23T03:33:40.563Z,18.53
2022-08-23T03:34:39.553Z,18.53
2022-08-23T03:35:39.552Z,18.51
2022-08-23T03:36:39.538Z,18.50
2022-08-23T03:37:41.461Z,18.49
2022-08-23T03:38:39.507Z,18.47
2022-08-23T03:39:39.582Z,18.47
2022-08-23T03:40:39.477Z,18.46
2022-08-23T03:41:39.481Z,18.47
2022-08-23T03:42:39.533Z,18.44
2022-08-23T03:43:39.440Z,18.44
2022-08-23T03:44:39.451Z,18.42
2022-08-23T03:45:39.453Z,18.42
2022-08-23T03:46:39.394Z,18.44
2022-08-23T03:47:39.396Z,18.46
2022-08-23T03:48:39.393Z,18.46
2022-08-23T03:49:39.417Z,18.46
2022-08-23T03:50:39.371Z,18.44
2022-08-23T03:51:39.321Z,18.42
2022-08-23T03:52:39.301Z,18.41
2022-08-23T03:53:39.363Z,18.42
2022-08-23T03:54:39.320Z,18.41
2022-08-23T03:55:42.316Z,18.38
2022-08-23T03:56:39.278Z,18.38
2022-08-23T03:57:39.320Z,18.36
2022-08-23T03:58:39.244Z,18.36
2022-08-23T03:59:39.277Z,18.36
2022-08-23T04:00:39.262Z,18.34
2022-08-23T04:01:39.278Z,18.36
2022-08-23T04:02:39.193Z,18.35
2022-08-23T04:03:39.203Z,18.35
2022-08-23T04:04:39.186Z,18.32
2022-08-23T04:05:39.184Z,18.32
2022-08-23T04:06:39.128Z,18.31
2022-08-23T04:07:39.140Z,18.31
2022-08-23T04:08:39.112Z,18.29
2022-08-23T04:09:39.127Z,18.28
2022-08-23T04:10:39.175Z,18.26
2022-08-23T04:11:39.081Z,18.26
2022-08-23T04:12:39.030Z,18.26
2022-08-23T04:13:39.059Z,18.25
2022-08-23T04:14:39.041Z,18.23
2022-08-23T04:15:39.012Z,18.23
2022-08-23T04:16:38.985Z,18.23
2022-08-23T04:17:39.011Z,18.21
2022-08-23T04:18:38.982Z,18.19
2022-08-23T04:19:38.970Z,18.19
2022-08-23T04:20:38.951Z,18.19
2022-08-23T04:21:38.950Z,18.19
2022-08-23T04:22:39.621Z,18.17
2022-08-23T04:23:38.972Z,18.17
2022-08-23T04:24:38.922Z,18.16
2022-08-23T04:25:38.907Z,18.16
2022-08-23T04:26:38.851Z,18.14
2022-08-23T04:27:38.946Z,18.14
2022-08-23T04:28:38.841Z,18.14
2022-08-23T04:29:38.943Z,18.13
2022-08-23T04:30:38.833Z,18.13
2022-08-23T04:31:38.846Z,18.11
2022-08-23T04:32:38.833Z,18.11
2022-08-23T04:33:40.172Z,18.11
2022-08-23T04:34:38.760Z,18.10
2022-08-23T04:35:38.796Z,18.11
2022-08-23T04:36:38.743Z,18.11
2022-08-23T04:37:38.710Z,18.11
2022-08-23T04:38:38.741Z,18.11
2022-08-23T04:39:38.738Z,18.11
2022-08-23T04:40:38.682Z,18.11
2022-08-23T04:41:38.693Z,18.10
2022-08-23T04:42:38.717Z,18.09
2022-08-23T04:43:38.703Z,18.10
2022-08-23T04:44:38.680Z,18.09
2022-08-23T04:45:38.635Z,18.09
2022-08-23T04:46:38.591Z,18.07
2022-08-23T04:47:38.630Z,18.09
2022-08-23T04:48:38.604Z,18.07
2022-08-23T04:49:38.642Z,18.07
2022-08-23T04:50:38.612Z,18.07
2022-08-23T04:51:38.623Z,18.07
2022-08-23T04:52:38.606Z,18.07
2022-08-23T04:53:38.549Z,18.04
2022-08-23T04:54:38.534Z,18.05
2022-08-23T04:55:38.481Z,18.05
2022-08-23T04:56:38.539Z,18.05
2022-08-23T04:57:38.470Z,18.05
2022-08-23T04:58:38.470Z,18.05
2022-08-23T04:59:38.456Z,18.05
2022-08-23T05:00:38.447Z,18.05
2022-08-23T05:01:38.453Z,18.05
2022-08-23T05:02:38.412Z,18.05
2022-08-23T05:03:38.399Z,18.04
2022-08-23T05:04:38.361Z,18.05
2022-08-23T05:05:38.410Z,18.05
2022-08-23T05:06:38.359Z,18.05
2022-08-23T05:07:42.600Z,18.05
2022-08-23T05:08:38.413Z,18.05
2022-08-23T05:09:38.381Z,18.05
2022-08-23T05:10:38.281Z,18.09
2022-08-23T05:11:38.349Z,18.09
2022-08-23T05:12:38.361Z,18.09
2022-08-23T05:13:38.319Z,18.10
2022-08-23T05:14:38.228Z,18.09
2022-08-23T05:15:38.229Z,18.09
2022-08-23T05:16:38.230Z,18.10
2022-08-23T05:17:38.234Z,18.13
2022-08-23T05:18:38.183Z,18.13
2022-08-23T05:19:39.450Z,18.13
2022-08-23T05:20:39.161Z,18.14
2022-08-23T05:21:38.174Z,18.14
2022-08-23T05:22:38.182Z,18.17
2022-08-23T05:23:38.151Z,18.16
2022-08-23T05:24:38.167Z,18.19
2022-08-23T05:25:38.098Z,18.19
2022-08-23T05:26:38.062Z,18.20
2022-08-23T05:27:38.122Z,18.20
2022-08-23T05:28:38.114Z,18.25
2022-08-23T05:29:38.070Z,18.26
2022-08-23T05:30:38.031Z,18.23
2022-08-23T05:31:38.045Z,18.28
2022-08-23T05:32:37.991Z,18.29
2022-08-23T05:33:38.066Z,18.29
2022-08-23T05:34:37.968Z,18.31
2022-08-23T05:35:37.966Z,18.31
2022-08-23T05:36:37.971Z,18.31
2022-08-23T05:37:38.940Z,18.32
2022-08-23T05:38:38.072Z,18.32
2022-08-23T05:39:37.923Z,18.36
2022-08-23T05:40:37.900Z,18.36
2022-08-23T05:41:38.675Z,18.36
2022-08-23T05:42:37.871Z,18.38
2022-08-23T05:43:37.962Z,18.41
2022-08-23T05:44:37.845Z,18.42
2022-08-23T05:45:37.903Z,18.42
2022-08-23T05:46:37.811Z,18.42
2022-08-23T05:47:37.839Z,18.44
2022-08-23T05:48:37.810Z,18.47
2022-08-23T05:49:37.789Z,18.47
2022-08-23T05:50:37.784Z,18.49
2022-08-23T05:51:37.751Z,18.49
2022-08-23T05:52:37.750Z,18.51
2022-08-23T05:53:37.760Z,18.53
2022-08-23T05:54:37.734Z,18.54
2022-08-23T05:55:37.729Z,18.54
2022-08-23T05:56:37.705Z,18.57
2022-08-23T05:57:37.704Z,18.60
2022-08-23T05:58:37.658Z,18.62
2022-08-23T05:59:37.671Z,18.65
2022-08-23T06:00:40.378Z,18.65
2022-08-23T06:01:37.664Z,18.69
2022-08-23T06:02:37.622Z,18.71
2022-08-23T06:03:37.608Z,18.72
2022-08-23T06:04:37.640Z,18.75
2022-08-23T06:05:37.581Z,18.78
2022-08-23T06:06:37.862Z,18.82
2022-08-23T06:07:37.561Z,18.83
2022-08-23T06:08:37.562Z,18.86
2022-08-23T06:09:37.560Z,18.89
2022-08-23T06:10:42.052Z,18.91
2022-08-23T06:11:37.527Z,18.94
2022-08-23T06:12:37.491Z,18.99
2022-08-23T06:13:37.500Z,19.01
2022-08-23T06:14:37.517Z,19.02
2022-08-23T06:15:37.441Z,19.05
2022-08-23T06:16:37.400Z,19.06
2022-08-23T06:17:37.414Z,19.09
2022-08-23T06:18:37.411Z,19.10
2022-08-23T06:19:37.419Z,19.13
2022-08-23T06:20:37.420Z,19.16
2022-08-23T06:21:37.391Z,19.21
2022-08-23T06:22:37.361Z,19.24
2022-08-23T06:23:37.388Z,19.25
2022-08-23T06:24:37.328Z,19.28
2022-08-23T06:25:38.003Z,19.31
2022-08-23T06:26:37.422Z,19.32
2022-08-23T06:27:37.328Z,19.39
2022-08-23T06:28:37.538Z,19.42
2022-08-23T06:29:38.282Z,19.46
2022-08-23T06:30:39.730Z,19.47
2022-08-23T06:31:37.370Z,19.53
2022-08-23T06:32:37.332Z,19.61
2022-08-23T06:33:37.492Z,19.76
2022-08-23T06:34:37.674Z,19.85
2022-08-23T06:35:38.794Z,19.86
2022-08-23T06:36:37.288Z,19.87
2022-08-23T06:37:37.221Z,19.87
2022-08-23T06:38:37.256Z,19.87
2022-08-23T06:39:37.797Z,19.89
2022-08-23T06:40:37.179Z,19.90
2022-08-23T06:41:37.269Z,19.92
2022-08-23T06:42:38.830Z,19.94
2022-08-23T06:43:37.249Z,19.98
2022-08-23T06:44:37.169Z,20.02
2022-08-23T06:45:37.072Z,20.04
2022-08-23T06:46:37.091Z,20.05
2022-08-23T06:47:37.142Z,20.07
2022-08-23T06:48:37.252Z,20.10
2022-08-23T06:49:37.579Z,20.13
2022-08-23T06:50:37.142Z,20.15
2022-08-23T06:51:37.326Z,20.19
2022-08-23T06:52:37.041Z,20.20
2022-08-23T06:53:38.117Z,20.22
2022-08-23T06:54:37.121Z,20.23
2022-08-23T06:55:37.058Z,20.25
2022-08-23T06:56:36.953Z,20.31
2022-08-23T06:57:36.935Z,20.33
2022-08-23T06:58:36.927Z,20.34
2022-08-23T06:59:36.915Z,20.35
2022-08-23T07:00:36.915Z,20.38
2022-08-23T07:01:46.008Z,20.40
2022-08-23T07:02:37.864Z,20.42
2022-08-23T07:03:36.885Z,20.46
2022-08-23T07:04:36.861Z,20.48
2022-08-23T07:05:36.825Z,20.50
2022-08-23T07:06:36.804Z,20.53
2022-08-23T07:07:41.276Z,20.56
2022-08-23T07:08:37.855Z,20.57
2022-08-23T07:09:36.803Z,20.60
2022-08-23T07:10:36.763Z,20.63
2022-08-23T07:11:36.761Z,20.64
2022-08-23T07:12:36.731Z,20.68
2022-08-23T07:13:37.652Z,20.71
2022-08-23T07:14:36.773Z,20.72
2022-08-23T07:15:36.732Z,20.75
2022-08-23T07:16:36.772Z,20.78
2022-08-23T07:17:36.630Z,20.81
2022-08-23T07:18:36.708Z,20.82
2022-08-23T07:19:36.623Z,20.87
2022-08-23T07:20:36.665Z,20.90
2022-08-23T07:21:36.601Z,20.96
2022-08-23T07:22:36.616Z,20.98
2022-08-23T07:23:36.542Z,21.03
2022-08-23T07:24:36.597Z,21.06
2022-08-23T07:25:36.764Z,21.11
2022-08-23T07:26:36.530Z,21.11
2022-08-23T07:27:36.511Z,21.15
2022-08-23T07:28:36.548Z,21.18
2022-08-23T07:29:36.618Z,21.24
2022-08-23T07:30:36.481Z,21.27
2022-08-23T07:31:36.588Z,21.30
2022-08-23T07:32:36.518Z,21.34
2022-08-23T07:33:36.424Z,21.38
2022-08-23T07:34:36.445Z,21.42
2022-08-23T07:35:40.221Z,21.45
2022-08-23T07:36:36.401Z,21.46
2022-08-23T07:37:36.383Z,21.46
2022-08-23T07:38:36.493Z,21.48
2022-08-23T07:39:36.370Z,21.51
2022-08-23T07:40:39.045Z,21.53
2022-08-23T07:41:36.492Z,21.55
2022-08-23T07:42:36.424Z,21.58
2022-08-23T07:43:36.346Z,21.68
2022-08-23T07:44:36.353Z,21.86
2022-08-23T07:45:36.345Z,22.04
2022-08-23T07:46:36.334Z,22.08
2022-08-23T07:47:36.812Z,22.05
2022-08-23T07:48:53.547Z,21.99
2022-08-23T07:49:37.458Z,21.98
2022-08-23T07:50:36.423Z,21.99
2022-08-23T07:51:36.379Z,21.98
2022-08-23T07:52:39.231Z,21.99
2022-08-23T07:55:07.733Z,22.08
2022-08-23T07:56:07.357Z,22.09
2022-08-23T07:57:05.620Z,22.11
2022-08-23T07:58:05.484Z,22.12
2022-08-23T08:02:06.409Z,22.23
2022-08-23T08:02:29.609Z,22.23
2022-08-23T08:03:25.935Z,22.24
2022-08-23T08:04:26.882Z,22.27
2022-08-23T08:05:26.165Z,22.31
2022-08-23T08:06:26.650Z,22.36
2022-08-23T08:07:25.746Z,22.42
2022-08-23T08:08:25.506Z,22.49
2022-08-23T08:09:26.275Z,22.52
2022-08-23T08:10:25.923Z,22.52
2022-08-23T08:11:26.529Z,22.52
2022-08-23T08:12:26.663Z,22.52
2022-08-23T08:13:26.030Z,22.54
2022-08-23T08:14:25.490Z,22.57
2022-08-23T08:15:27.942Z,22.59
2022-08-23T08:16:28.112Z,22.63
2022-08-23T08:17:27.561Z,22.67
2022-08-23T08:18:26.099Z,22.74
2022-08-23T08:19:25.795Z,22.76
2022-08-23T08:20:26.992Z,22.78
2022-08-23T08:21:26.725Z,22.81
2022-08-23T08:22:25.384Z,22.85
2022-08-23T08:23:25.382Z,22.86
2022-08-23T08:24:25.342Z,22.86
2022-08-23T08:25:25.444Z,22.86
2022-08-23T08:26:25.880Z,22.91
2022-08-23T08:27:25.537Z,23.01
2022-08-23T08:28:25.283Z,23.14
2022-08-23T08:29:25.437Z,23.16
2022-08-23T08:30:26.226Z,23.19
2022-08-23T08:31:25.442Z,23.22
2022-08-23T08:32:25.374Z,23.23
2022-08-23T08:33:25.621Z,23.19
2022-08-23T08:34:26.377Z,23.18
2022-08-23T08:35:25.383Z,23.16
2022-08-23T08:36:26.033Z,23.16
2022-08-23T08:37:27.785Z,23.16
2022-08-23T08:38:48.209Z,23.21
2022-08-23T08:39:25.310Z,23.25
2022-08-23T08:40:25.331Z,23.29
2022-08-23T08:41:25.976Z,23.31
2022-08-23T08:42:25.124Z,23.32
2022-08-23T08:43:26.518Z,23.35
2022-08-23T08:44:26.181Z,23.34
2022-08-23T08:45:29.047Z,23.35
2022-08-23T08:46:26.900Z,23.37
2022-08-23T08:47:25.015Z,23.37
2022-08-23T08:48:25.793Z,23.38
2022-08-23T08:49:25.098Z,23.41
2022-08-23T08:50:25.113Z,23.42
2022-08-23T08:51:25.038Z,23.45
2022-08-23T08:52:26.055Z,23.54
2022-08-23T08:53:25.179Z,23.64
2022-08-23T08:54:25.105Z,23.74
2022-08-23T08:55:26.863Z,23.79
2022-08-23T08:56:32.441Z,23.82
2022-08-23T08:57:27.754Z,23.84
2022-08-23T08:58:25.858Z,23.81
2022-08-23T08:59:25.024Z,23.81
2022-08-23T09:00:24.986Z,23.79
2022-08-23T09:01:24.975Z,23.86
2022-08-23T09:02:32.484Z,23.97
2022-08-23T09:03:26.051Z,24.29
2022-08-23T09:04:24.916Z,24.53
2022-08-23T09:05:25.422Z,24.66
2022-08-23T09:06:24.937Z,24.71
2022-08-23T09:07:29.180Z,24.87
2022-08-23T09:08:25.917Z,25.19
2022-08-23T09:09:24.850Z,25.42
2022-08-23T09:10:26.380Z,25.48
2022-08-23T09:11:24.881Z,25.41
2022-08-23T09:12:26.417Z,25.34
2022-08-23T09:13:24.895Z,25.29
2022-08-23T09:14:24.689Z,25.20
2022-08-23T09:15:26.024Z,25.08
2022-08-23T09:16:24.809Z,24.97
2022-08-23T09:17:25.218Z,24.87
2022-08-23T09:18:26.585Z,24.80
2022-08-23T09:19:25.113Z,24.75
2022-08-23T09:20:24.980Z,24.71
2022-08-23T09:21:28.406Z,24.66
2022-08-23T09:22:45.853Z,24.64
2022-08-23T09:23:24.573Z,24.63
2022-08-23T09:24:24.719Z,24.66
2022-08-23T09:25:24.941Z,24.64
2022-08-23T09:26:24.741Z,24.64
2022-08-23T09:27:28.569Z,24.63
2022-08-23T09:28:26.630Z,24.67
2022-08-23T09:29:26.251Z,24.75
2022-08-23T09:30:24.571Z,24.82
2022-08-23T09:31:25.637Z,24.83
2022-08-23T09:32:25.195Z,24.82
2022-08-23T09:33:26.763Z,24.82
2022-08-23T09:34:26.898Z,24.82
2022-08-23T09:35:25.037Z,24.83
2022-08-23T09:36:24.967Z,24.84
2022-08-23T09:37:28.414Z,24.84
2022-08-23T09:38:24.587Z,24.84
2022-08-23T09:39:30.806Z,24.86
2022-08-23T09:40:27.987Z,24.87
2022-08-23T09:41:32.013Z,24.84
2022-08-23T09:42:37.457Z,24.83
2022-08-23T09:43:29.813Z,24.84
2022-08-23T09:44:26.531Z,24.86
2022-08-23T09:45:46.511Z,24.90
2022-08-23T09:46:27.254Z,24.97
2022-08-23T09:47:26.295Z,25.01
2022-08-23T09:48:31.075Z,25.07
2022-08-23T09:49:24.525Z,25.14
2022-08-23T09:50:31.181Z,25.20
2022-08-23T09:51:32.727Z,25.23
2022-08-23T09:52:24.744Z,25.26
2022-08-23T09:53:41.388Z,25.26
2022-08-23T09:54:48.258Z,25.27
2022-08-23T09:55:25.485Z,25.31
2022-08-23T09:56:29.209Z,25.36
2022-08-23T09:57:24.405Z,25.38
2022-08-23T09:58:27.665Z,25.41
2022-08-23T09:59:27.342Z,25.42
2022-08-23T10:00:27.301Z,25.46
2022-08-23T10:01:25.561Z,25.53
2022-08-23T10:02:30.686Z,25.56
2022-08-23T10:03:25.368Z,25.59
2022-08-23T10:04:24.300Z,25.59
2022-08-23T10:05:28.892Z,25.60
2022-08-23T10:06:31.198Z,25.57
2022-08-23T10:07:29.008Z,25.57
2022-08-23T10:08:29.677Z,25.54
2022-08-23T10:09:28.936Z,25.56
2022-08-23T10:10:29.717Z,25.59
2022-08-23T10:12:01.969Z,25.61
2022-08-23T10:12:23.982Z,25.71
2022-08-23T10:13:24.166Z,25.76
2022-08-23T10:14:35.358Z,25.76
2022-08-23T10:15:25.054Z,25.78
2022-08-23T10:16:24.006Z,25.78
2022-08-23T10:17:25.143Z,25.79
2022-08-23T10:18:24.265Z,25.78
2022-08-23T10:19:26.187Z,25.78
2022-08-23T10:20:27.591Z,25.78
2022-08-23T10:21:25.149Z,25.82
2022-08-23T10:22:25.723Z,25.90
2022-08-23T10:23:26.394Z,25.93
2022-08-23T10:24:29.422Z,25.98
2022-08-23T10:25:25.673Z,26.04
2022-08-23T10:26:25.799Z,26.08
2022-08-23T10:27:24.070Z,26.11
2022-08-23T10:28:24.083Z,26.13
2022-08-23T10:29:28.366Z,26.16
2022-08-23T10:30:24.310Z,26.16
2022-08-23T10:31:25.822Z,26.16
2022-08-23T10:32:32.291Z,26.16
2022-08-23T10:33:23.738Z,26.17
2022-08-23T10:34:29.972Z,26.19
2022-08-23T10:35:35.521Z,26.20
2022-08-23T10:36:25.612Z,26.21
2022-08-23T10:37:26.373Z,26.27
2022-08-23T10:38:24.905Z,26.29
2022-08-23T10:39:27.036Z,26.35
2022-08-23T10:40:24.225Z,26.42
2022-08-23T10:41:24.713Z,26.49
2022-08-23T10:42:24.206Z,26.51
2022-08-23T10:43:23.893Z,26.57
2022-08-23T10:44:24.020Z,26.60
2022-08-23T10:45:24.004Z,26.64
2022-08-23T10:46:27.336Z,26.64
2022-08-23T10:47:26.200Z,26.66
2022-08-23T10:48:24.865Z,26.69
2022-08-23T10:49:25.762Z,26.73
2022-08-23T10:50:27.735Z,26.78
2022-08-23T10:51:31.945Z,26.79
2022-08-23T10:52:35.385Z,26.79
2022-08-23T10:53:30.103Z,26.81
2022-08-23T10:54:47.460Z,26.87
2022-08-23T10:55:25.920Z,26.94
2022-08-23T10:56:32.580Z,26.98
2022-08-23T10:57:30.770Z,27.03
2022-08-23T10:58:24.609Z,27.05
2022-08-23T10:59:25.537Z,27.05
2022-08-23T11:00:25.591Z,27.06
2022-08-23T11:01:27.629Z,27.11
2022-08-23T11:02:26.399Z,27.11
2022-08-23T11:03:29.084Z,27.13
2022-08-23T11:04:23.618Z,27.13
2022-08-23T11:05:27.259Z,27.13
2022-08-23T11:06:25.894Z,27.13
2022-08-23T11:07:24.561Z,27.16
2022-08-23T11:08:25.948Z,27.16
2022-08-23T11:09:25.890Z,27.16
2022-08-23T11:10:29.176Z,27.16
2022-08-23T11:11:27.873Z,27.16
2022-08-23T11:12:23.398Z,27.20
2022-08-23T11:13:23.497Z,27.18
2022-08-23T11:14:28.609Z,27.18
2022-08-23T11:15:23.519Z,27.16
2022-08-23T11:16:26.438Z,27.16
2022-08-23T11:17:23.227Z,27.16
2022-08-23T11:18:23.601Z,27.18
2022-08-23T11:19:26.472Z,27.18
2022-08-23T11:20:23.486Z,27.16
2022-08-23T11:21:38.674Z,27.15
2022-08-23T11:22:27.107Z,27.16
2022-08-23T11:23:28.961Z,27.16
2022-08-23T11:24:39.310Z,27.18
2022-08-23T11:25:28.936Z,27.20
2022-08-23T11:26:23.365Z,27.23
2022-08-23T11:27:28.401Z,27.23
2022-08-23T11:28:30.468Z,27.24
2022-08-23T11:29:33.428Z,27.27
2022-08-23T11:30:29.132Z,27.31
2022-08-23T11:31:37.643Z,27.39
2022-08-23T11:32:29.943Z,27.48
2022-08-23T11:33:31.015Z,27.52
2022-08-23T11:34:28.964Z,27.59
2022-08-23T11:36:36.041Z,27.72
2022-08-23T11:37:33.881Z,27.74
2022-08-23T11:38:34.185Z,27.76
2022-08-23T11:41:57.529Z,27.72
2022-08-23T11:42:58.945Z,27.74
2022-08-23T11:43:56.694Z,27.74
2022-08-23T11:44:56.821Z,27.77
2022-08-23T11:45:56.700Z,27.77
2022-08-23T11:46:56.756Z,27.76
2022-08-23T11:47:56.638Z,27.77
2022-08-23T11:48:56.683Z,27.77
2022-08-23T11:49:56.637Z,27.77
2022-08-23T11:50:58.212Z,27.78
2022-08-23T11:51:56.756Z,27.76
2022-08-23T11:52:56.616Z,27.74
2022-08-23T11:53:56.591Z,27.74
2022-08-23T11:54:56.612Z,27.76
2022-08-23T11:55:56.583Z,27.80
2022-08-23T11:56:56.581Z,27.86
2022-08-23T11:57:56.540Z,27.93
2022-08-23T11:58:56.523Z,27.96
2022-08-23T11:59:56.532Z,27.98
2022-08-23T12:00:56.715Z,27.98
2022-08-23T12:01:56.593Z,27.98
2022-08-23T12:02:56.603Z,27.99
2022-08-23T12:03:56.610Z,27.98
2022-08-23T12:04:56.484Z,27.98
2022-08-23T12:05:57.527Z,27.95
2022-08-23T12:06:56.487Z,27.90
2022-08-23T12:07:56.415Z,27.81
2022-08-23T12:08:56.419Z,27.74
2022-08-23T12:09:56.383Z,27.72
2022-08-23T12:10:56.766Z,27.72
2022-08-23T12:11:56.407Z,27.74
2022-08-23T12:13:15.664Z,27.80
2022-08-23T12:14:10.493Z,27.83
2022-08-23T12:15:10.108Z,27.84
2022-08-23T12:15:56.583Z,27.86
2022-08-23T12:16:57.967Z,27.88
2022-08-23T12:18:04.451Z,27.95
2022-08-23T12:18:56.536Z,28.02
2022-08-23T12:19:56.571Z,28.09
2022-08-23T12:20:57.191Z,28.11
2022-08-23T12:21:56.850Z,28.14
2022-08-23T12:22:57.821Z,28.13
2022-08-23T12:23:56.606Z,28.14
2022-08-23T12:24:56.392Z,28.15
2022-08-23T12:25:58.752Z,28.17
2022-08-23T12:26:56.366Z,28.17
2022-08-23T12:27:59.025Z,28.17
2022-08-23T12:28:57.258Z,28.18
2022-08-23T12:29:59.024Z,28.17
2022-08-23T12:30:58.035Z,28.14
2022-08-23T12:31:57.215Z,28.11
2022-08-23T12:32:56.638Z,28.09
2022-08-23T12:33:56.267Z,28.08
2022-08-23T12:36:33.627Z,28.09
2022-08-23T12:37:09.904Z,28.09
2022-08-23T12:38:13.216Z,28.09
2022-08-23T12:39:08.507Z,28.09
2022-08-23T12:40:08.071Z,28.09
2022-08-23T12:41:12.415Z,28.11
2022-08-23T12:42:07.728Z,28.08
2022-08-23T12:43:35.131Z,28.09
2022-08-23T12:44:10.109Z,28.14
2022-08-23T12:45:10.160Z,28.17
2022-08-23T12:46:07.171Z,28.20
2022-08-23T12:47:09.561Z,28.23
2022-08-23T12:48:11.346Z,28.28
2022-08-23T12:49:23.726Z,28.33
2022-08-23T12:50:07.528Z,28.36
2022-08-23T12:51:07.765Z,28.40
2022-08-23T12:52:08.622Z,28.48
2022-08-23T12:53:08.086Z,28.51
2022-08-23T12:54:09.177Z,28.57
2022-08-23T12:55:06.907Z,28.57
2022-08-23T12:56:10.356Z,28.58
2022-08-23T12:57:08.882Z,28.58
2022-08-23T12:58:07.771Z,28.58
2022-08-23T12:59:08.327Z,28.60
2022-08-23T13:00:16.947Z,28.61
2022-08-23T13:01:10.101Z,28.60
2022-08-23T13:02:07.227Z,28.61